sensor_id;sensor_type;location;lat;lon;timestamp;P1;durP1;ratioP1;P2;durP2;ratioP2
30539;SDS011;17321;46.312;4.776;2022-07-23T00:02:13;10.02;;;6.78;;
30539;SDS011;17321;46.312;4.776;2022-07-23T00:04:40;8.50;;;7.32;;
30539;SDS011;17321;46.312;4.776;2022-07-23T00:07:06;9.60;;;6.90;;
30539;SDS011;17321;46.312;4.776;2022-07-23T00:09:32;11.15;;;7.30;;
30539;SDS011;17321;46.312;4.776;2022-07-23T00:11:58;9.63;;;6.97;;
30539;SDS011;17321;46.312;4.776;2022-07-23T00:14:24;13.35;;;7.15;;
30539;SDS011;17321;46.312;4.776;2022-07-23T00:16:50;9.70;;;6.90;;
30539;SDS011;17321;46.312;4.776;2022-07-23T00:19:17;12.48;;;7.13;;
30539;SDS011;17321;46.312;4.776;2022-07-23T00:21:43;33.08;;;8.02;;
30539;SDS011;17321;46.312;4.776;2022-07-23T00:24:09;12.77;;;7.60;;
30539;SDS011;17321;46.312;4.776;2022-07-23T00:26:35;10.18;;;7.22;;
30539;SDS011;17321;46.312;4.776;2022-07-23T00:29:01;9.50;;;7.70;;
30539;SDS011;17321;46.312;4.776;2022-07-23T00:31:27;9.50;;;7.38;;
30539;SDS011;17321;46.312;4.776;2022-07-23T00:33:53;10.30;;;6.75;;
30539;SDS011;17321;46.312;4.776;2022-07-23T00:36:22;8.43;;;7.27;;
30539;SDS011;17321;46.312;4.776;2022-07-23T00:38:48;10.10;;;6.97;;
30539;SDS011;17321;46.312;4.776;2022-07-23T00:41:15;8.20;;;6.72;;
30539;SDS011;17321;46.312;4.776;2022-07-23T00:43:41;10.48;;;7.05;;
30539;SDS011;17321;46.312;4.776;2022-07-23T00:46:07;10.13;;;6.80;;
30539;SDS011;17321;46.312;4.776;2022-07-23T00:48:33;13.32;;;6.75;;
30539;SDS011;17321;46.312;4.776;2022-07-23T00:50:59;17.02;;;7.10;;
30539;SDS011;17321;46.312;4.776;2022-07-23T00:53:25;10.80;;;6.85;;
30539;SDS011;17321;46.312;4.776;2022-07-23T00:55:51;14.50;;;7.78;;
30539;SDS011;17321;46.312;4.776;2022-07-23T00:58:19;9.05;;;5.95;;
30539;SDS011;17321;46.312;4.776;2022-07-23T01:00:45;14.88;;;6.63;;
30539;SDS011;17321;46.312;4.776;2022-07-23T01:03:11;9.73;;;6.20;;
30539;SDS011;17321;46.312;4.776;2022-07-23T01:05:37;9.32;;;6.68;;
30539;SDS011;17321;46.312;4.776;2022-07-23T01:08:05;8.85;;;6.25;;
30539;SDS011;17321;46.312;4.776;2022-07-23T01:10:31;10.55;;;6.13;;
30539;SDS011;17321;46.312;4.776;2022-07-23T01:13:07;9.15;;;5.90;;
30539;SDS011;17321;46.312;4.776;2022-07-23T01:15:35;11.90;;;6.70;;
30539;SDS011;17321;46.312;4.776;2022-07-23T01:18:01;6.15;;;5.60;;
30539;SDS011;17321;46.312;4.776;2022-07-23T01:20:28;8.70;;;6.18;;
30539;SDS011;17321;46.312;4.776;2022-07-23T01:22:54;14.30;;;6.90;;
30539;SDS011;17321;46.312;4.776;2022-07-23T01:25:20;8.18;;;6.35;;
30539;SDS011;17321;46.312;4.776;2022-07-23T01:27:46;9.63;;;6.78;;
30539;SDS011;17321;46.312;4.776;2022-07-23T01:30:13;7.95;;;6.03;;
30539;SDS011;17321;46.312;4.776;2022-07-23T01:32:39;10.23;;;6.60;;
30539;SDS011;17321;46.312;4.776;2022-07-23T01:35:05;8.10;;;6.55;;
30539;SDS011;17321;46.312;4.776;2022-07-23T01:37:32;7.40;;;6.15;;
30539;SDS011;17321;46.312;4.776;2022-07-23T01:39:58;12.80;;;6.53;;
30539;SDS011;17321;46.312;4.776;2022-07-23T01:42:24;10.80;;;6.47;;
30539;SDS011;17321;46.312;4.776;2022-07-23T01:44:51;6.88;;;5.90;;
30539;SDS011;17321;46.312;4.776;2022-07-23T01:47:17;6.97;;;5.82;;
30539;SDS011;17321;46.312;4.776;2022-07-23T01:49:43;16.58;;;6.72;;
30539;SDS011;17321;46.312;4.776;2022-07-23T01:52:09;11.05;;;5.97;;
30539;SDS011;17321;46.312;4.776;2022-07-23T01:54:36;10.38;;;6.03;;
30539;SDS011;17321;46.312;4.776;2022-07-23T01:57:03;10.77;;;5.43;;
30539;SDS011;17321;46.312;4.776;2022-07-23T01:59:29;8.38;;;6.57;;
30539;SDS011;17321;46.312;4.776;2022-07-23T02:01:56;13.23;;;6.75;;
30539;SDS011;17321;46.312;4.776;2022-07-23T02:04:22;9.23;;;6.22;;
30539;SDS011;17321;46.312;4.776;2022-07-23T02:06:49;7.63;;;6.28;;
30539;SDS011;17321;46.312;4.776;2022-07-23T02:09:16;10.05;;;6.70;;
30539;SDS011;17321;46.312;4.776;2022-07-23T02:11:42;9.60;;;6.35;;
30539;SDS011;17321;46.312;4.776;2022-07-23T02:14:08;8.05;;;6.32;;
30539;SDS011;17321;46.312;4.776;2022-07-23T02:16:34;9.85;;;6.47;;
30539;SDS011;17321;46.312;4.776;2022-07-23T02:19:01;13.18;;;6.35;;
30539;SDS011;17321;46.312;4.776;2022-07-23T02:21:27;11.68;;;6.10;;
30539;SDS011;17321;46.312;4.776;2022-07-23T02:23:53;8.38;;;6.22;;
30539;SDS011;17321;46.312;4.776;2022-07-23T02:26:19;11.30;;;7.15;;
30539;SDS011;17321;46.312;4.776;2022-07-23T02:28:45;9.90;;;7.13;;
30539;SDS011;17321;46.312;4.776;2022-07-23T02:31:11;8.82;;;6.32;;
30539;SDS011;17321;46.312;4.776;2022-07-23T02:33:37;9.20;;;6.43;;
30539;SDS011;17321;46.312;4.776;2022-07-23T02:36:04;9.00;;;6.90;;
30539;SDS011;17321;46.312;4.776;2022-07-23T02:38:30;12.32;;;6.32;;
30539;SDS011;17321;46.312;4.776;2022-07-23T02:40:56;7.18;;;6.15;;
30539;SDS011;17321;46.312;4.776;2022-07-23T02:43:22;7.75;;;6.82;;
30539;SDS011;17321;46.312;4.776;2022-07-23T02:45:48;11.73;;;6.75;;
30539;SDS011;17321;46.312;4.776;2022-07-23T02:48:14;9.98;;;7.20;;
30539;SDS011;17321;46.312;4.776;2022-07-23T02:50:40;11.43;;;6.72;;
30539;SDS011;17321;46.312;4.776;2022-07-23T02:53:06;8.70;;;7.45;;
30539;SDS011;17321;46.312;4.776;2022-07-23T02:55:33;9.13;;;6.68;;
30539;SDS011;17321;46.312;4.776;2022-07-23T02:57:59;8.43;;;7.57;;
30539;SDS011;17321;46.312;4.776;2022-07-23T03:00:25;15.90;;;7.80;;
30539;SDS011;17321;46.312;4.776;2022-07-23T03:02:51;8.38;;;6.65;;
30539;SDS011;17321;46.312;4.776;2022-07-23T03:05:17;8.75;;;7.57;;
30539;SDS011;17321;46.312;4.776;2022-07-23T03:07:43;11.55;;;8.38;;
30539;SDS011;17321;46.312;4.776;2022-07-23T03:10:09;8.57;;;6.88;;
30539;SDS011;17321;46.312;4.776;2022-07-23T03:12:36;10.00;;;7.38;;
30539;SDS011;17321;46.312;4.776;2022-07-23T03:15:02;14.73;;;7.25;;
30539;SDS011;17321;46.312;4.776;2022-07-23T03:17:28;11.57;;;6.97;;
30539;SDS011;17321;46.312;4.776;2022-07-23T03:19:54;13.13;;;7.57;;
30539;SDS011;17321;46.312;4.776;2022-07-23T03:22:20;14.23;;;7.35;;
30539;SDS011;17321;46.312;4.776;2022-07-23T03:24:46;9.65;;;7.47;;
30539;SDS011;17321;46.312;4.776;2022-07-23T03:27:19;11.80;;;7.82;;
30539;SDS011;17321;46.312;4.776;2022-07-23T03:29:45;13.80;;;7.50;;
30539;SDS011;17321;46.312;4.776;2022-07-23T03:32:11;10.90;;;6.82;;
30539;SDS011;17321;46.312;4.776;2022-07-23T03:34:37;10.43;;;6.85;;
30539;SDS011;17321;46.312;4.776;2022-07-23T03:37:04;12.63;;;7.00;;
30539;SDS011;17321;46.312;4.776;2022-07-23T03:39:30;8.73;;;6.50;;
30539;SDS011;17321;46.312;4.776;2022-07-23T03:41:56;10.05;;;7.32;;
30539;SDS011;17321;46.312;4.776;2022-07-23T03:44:22;11.40;;;7.90;;
30539;SDS011;17321;46.312;4.776;2022-07-23T03:46:48;10.18;;;7.20;;
30539;SDS011;17321;46.312;4.776;2022-07-23T03:49:15;13.15;;;6.63;;
30539;SDS011;17321;46.312;4.776;2022-07-23T03:51:41;10.65;;;7.00;;
30539;SDS011;17321;46.312;4.776;2022-07-23T03:54:07;13.80;;;6.90;;
30539;SDS011;17321;46.312;4.776;2022-07-23T03:56:33;10.55;;;6.93;;
30539;SDS011;17321;46.312;4.776;2022-07-23T03:58:59;10.30;;;6.55;;
30539;SDS011;17321;46.312;4.776;2022-07-23T04:01:25;9.75;;;7.00;;
30539;SDS011;17321;46.312;4.776;2022-07-23T04:03:51;10.35;;;6.55;;
30539;SDS011;17321;46.312;4.776;2022-07-23T04:06:17;13.70;;;6.93;;
30539;SDS011;17321;46.312;4.776;2022-07-23T04:08:44;10.90;;;6.57;;
30539;SDS011;17321;46.312;4.776;2022-07-23T04:11:10;10.30;;;6.45;;
30539;SDS011;17321;46.312;4.776;2022-07-23T04:13:36;8.95;;;6.47;;
30539;SDS011;17321;46.312;4.776;2022-07-23T04:16:02;10.73;;;7.47;;
30539;SDS011;17321;46.312;4.776;2022-07-23T04:18:29;11.80;;;6.82;;
30539;SDS011;17321;46.312;4.776;2022-07-23T04:20:55;10.85;;;6.32;;
30539;SDS011;17321;46.312;4.776;2022-07-23T04:23:21;13.90;;;7.20;;
30539;SDS011;17321;46.312;4.776;2022-07-23T04:25:47;14.30;;;7.00;;
30539;SDS011;17321;46.312;4.776;2022-07-23T04:28:13;13.65;;;6.38;;
30539;SDS011;17321;46.312;4.776;2022-07-23T04:30:39;10.60;;;7.22;;
30539;SDS011;17321;46.312;4.776;2022-07-23T04:33:06;10.90;;;6.88;;
30539;SDS011;17321;46.312;4.776;2022-07-23T04:35:32;13.05;;;6.93;;
30539;SDS011;17321;46.312;4.776;2022-07-23T04:37:58;11.75;;;7.20;;
30539;SDS011;17321;46.312;4.776;2022-07-23T04:40:25;9.05;;;6.38;;
30539;SDS011;17321;46.312;4.776;2022-07-23T04:42:51;9.13;;;6.00;;
30539;SDS011;17321;46.312;4.776;2022-07-23T04:45:17;10.98;;;6.32;;
30539;SDS011;17321;46.312;4.776;2022-07-23T04:47:43;9.80;;;6.03;;
30539;SDS011;17321;46.312;4.776;2022-07-23T04:50:10;10.70;;;6.35;;
30539;SDS011;17321;46.312;4.776;2022-07-23T04:52:36;15.65;;;6.53;;
30539;SDS011;17321;46.312;4.776;2022-07-23T04:55:02;11.15;;;6.22;;
30539;SDS011;17321;46.312;4.776;2022-07-23T04:57:29;9.05;;;6.15;;
30539;SDS011;17321;46.312;4.776;2022-07-23T04:59:55;14.52;;;6.25;;
30539;SDS011;17321;46.312;4.776;2022-07-23T05:02:21;11.55;;;6.22;;
30539;SDS011;17321;46.312;4.776;2022-07-23T05:04:47;16.20;;;6.20;;
30539;SDS011;17321;46.312;4.776;2022-07-23T05:07:13;8.55;;;5.82;;
30539;SDS011;17321;46.312;4.776;2022-07-23T05:09:39;7.97;;;5.95;;
30539;SDS011;17321;46.312;4.776;2022-07-23T05:12:05;11.57;;;6.25;;
30539;SDS011;17321;46.312;4.776;2022-07-23T05:14:32;17.23;;;5.82;;
30539;SDS011;17321;46.312;4.776;2022-07-23T05:16:58;7.63;;;6.28;;
30539;SDS011;17321;46.312;4.776;2022-07-23T05:19:24;14.73;;;6.53;;
30539;SDS011;17321;46.312;4.776;2022-07-23T05:21:50;10.77;;;7.07;;
30539;SDS011;17321;46.312;4.776;2022-07-23T05:24:16;9.60;;;6.10;;
30539;SDS011;17321;46.312;4.776;2022-07-23T05:26:42;11.00;;;6.53;;
30539;SDS011;17321;46.312;4.776;2022-07-23T05:29:08;8.30;;;6.05;;
30539;SDS011;17321;46.312;4.776;2022-07-23T05:31:34;10.35;;;6.03;;
30539;SDS011;17321;46.312;4.776;2022-07-23T05:34:00;9.55;;;6.55;;
30539;SDS011;17321;46.312;4.776;2022-07-23T05:36:27;7.65;;;6.25;;
30539;SDS011;17321;46.312;4.776;2022-07-23T05:38:53;9.95;;;6.40;;
30539;SDS011;17321;46.312;4.776;2022-07-23T05:41:19;11.90;;;6.68;;
30539;SDS011;17321;46.312;4.776;2022-07-23T05:43:45;11.38;;;6.57;;
30539;SDS011;17321;46.312;4.776;2022-07-23T05:46:11;8.45;;;5.97;;
30539;SDS011;17321;46.312;4.776;2022-07-23T05:48:37;12.52;;;7.05;;
30539;SDS011;17321;46.312;4.776;2022-07-23T05:51:03;15.50;;;6.93;;
30539;SDS011;17321;46.312;4.776;2022-07-23T05:53:32;14.48;;;6.63;;
30539;SDS011;17321;46.312;4.776;2022-07-23T05:55:59;14.90;;;6.20;;
30539;SDS011;17321;46.312;4.776;2022-07-23T05:58:25;12.38;;;6.43;;
30539;SDS011;17321;46.312;4.776;2022-07-23T06:00:51;10.73;;;6.88;;
30539;SDS011;17321;46.312;4.776;2022-07-23T06:03:17;16.10;;;6.80;;
30539;SDS011;17321;46.312;4.776;2022-07-23T06:05:43;11.38;;;7.45;;
30539;SDS011;17321;46.312;4.776;2022-07-23T06:08:09;13.20;;;7.68;;
30539;SDS011;17321;46.312;4.776;2022-07-23T06:10:35;13.20;;;7.10;;
30539;SDS011;17321;46.312;4.776;2022-07-23T06:13:02;15.60;;;7.75;;
30539;SDS011;17321;46.312;4.776;2022-07-23T06:15:28;9.05;;;7.05;;
30539;SDS011;17321;46.312;4.776;2022-07-23T06:17:55;10.07;;;6.95;;
30539;SDS011;17321;46.312;4.776;2022-07-23T06:20:21;15.10;;;7.03;;
30539;SDS011;17321;46.312;4.776;2022-07-23T06:22:47;10.20;;;6.93;;
30539;SDS011;17321;46.312;4.776;2022-07-23T06:25:13;14.63;;;6.90;;
30539;SDS011;17321;46.312;4.776;2022-07-23T06:27:41;10.48;;;7.07;;
30539;SDS011;17321;46.312;4.776;2022-07-23T06:30:07;9.85;;;7.32;;
30539;SDS011;17321;46.312;4.776;2022-07-23T06:32:35;11.70;;;7.15;;
30539;SDS011;17321;46.312;4.776;2022-07-23T06:35:01;14.02;;;7.05;;
30539;SDS011;17321;46.312;4.776;2022-07-23T06:37:27;13.38;;;7.30;;
30539;SDS011;17321;46.312;4.776;2022-07-23T06:39:53;10.93;;;6.85;;
30539;SDS011;17321;46.312;4.776;2022-07-23T06:42:20;11.13;;;7.18;;
30539;SDS011;17321;46.312;4.776;2022-07-23T06:44:47;10.35;;;6.75;;
30539;SDS011;17321;46.312;4.776;2022-07-23T06:47:13;13.60;;;8.05;;
30539;SDS011;17321;46.312;4.776;2022-07-23T06:49:39;11.57;;;7.63;;
30539;SDS011;17321;46.312;4.776;2022-07-23T06:52:06;10.32;;;7.40;;
30539;SDS011;17321;46.312;4.776;2022-07-23T06:54:33;10.95;;;6.88;;
30539;SDS011;17321;46.312;4.776;2022-07-23T06:56:59;8.45;;;7.43;;
30539;SDS011;17321;46.312;4.776;2022-07-23T06:59:25;16.98;;;8.20;;
30539;SDS011;17321;46.312;4.776;2022-07-23T07:01:51;10.93;;;7.53;;
30539;SDS011;17321;46.312;4.776;2022-07-23T07:04:17;11.77;;;7.97;;
30539;SDS011;17321;46.312;4.776;2022-07-23T07:06:43;12.65;;;7.88;;
30539;SDS011;17321;46.312;4.776;2022-07-23T07:09:10;10.98;;;7.75;;
30539;SDS011;17321;46.312;4.776;2022-07-23T07:11:36;9.30;;;6.75;;
30539;SDS011;17321;46.312;4.776;2022-07-23T07:14:02;12.57;;;7.22;;
30539;SDS011;17321;46.312;4.776;2022-07-23T07:16:29;11.55;;;7.32;;
30539;SDS011;17321;46.312;4.776;2022-07-23T07:18:55;14.20;;;7.38;;
30539;SDS011;17321;46.312;4.776;2022-07-23T07:21:21;10.65;;;6.82;;
30539;SDS011;17321;46.312;4.776;2022-07-23T07:23:47;13.27;;;6.60;;
30539;SDS011;17321;46.312;4.776;2022-07-23T07:26:13;8.77;;;7.28;;
30539;SDS011;17321;46.312;4.776;2022-07-23T07:28:39;10.80;;;7.43;;
30539;SDS011;17321;46.312;4.776;2022-07-23T07:31:06;14.02;;;7.32;;
30539;SDS011;17321;46.312;4.776;2022-07-23T07:33:32;11.38;;;8.63;;
30539;SDS011;17321;46.312;4.776;2022-07-23T07:35:58;7.53;;;6.70;;
30539;SDS011;17321;46.312;4.776;2022-07-23T07:38:25;12.07;;;7.13;;
30539;SDS011;17321;46.312;4.776;2022-07-23T07:40:51;9.45;;;7.35;;
30539;SDS011;17321;46.312;4.776;2022-07-23T07:43:17;12.23;;;7.63;;
30539;SDS011;17321;46.312;4.776;2022-07-23T07:45:44;9.30;;;7.70;;
30539;SDS011;17321;46.312;4.776;2022-07-23T07:48:10;10.63;;;7.75;;
30539;SDS011;17321;46.312;4.776;2022-07-23T07:50:36;13.40;;;7.97;;
30539;SDS011;17321;46.312;4.776;2022-07-23T07:53:02;8.55;;;7.05;;
30539;SDS011;17321;46.312;4.776;2022-07-23T07:55:28;14.80;;;7.38;;
30539;SDS011;17321;46.312;4.776;2022-07-23T07:57:57;11.23;;;7.70;;
30539;SDS011;17321;46.312;4.776;2022-07-23T08:00:23;10.95;;;6.78;;
30539;SDS011;17321;46.312;4.776;2022-07-23T08:02:50;11.80;;;6.63;;
30539;SDS011;17321;46.312;4.776;2022-07-23T08:05:23;9.05;;;6.97;;
30539;SDS011;17321;46.312;4.776;2022-07-23T08:07:50;14.85;;;7.80;;
30539;SDS011;17321;46.312;4.776;2022-07-23T08:10:16;11.23;;;7.03;;
30539;SDS011;17321;46.312;4.776;2022-07-23T08:12:43;10.02;;;7.47;;
30539;SDS011;17321;46.312;4.776;2022-07-23T08:15:10;10.35;;;6.55;;
30539;SDS011;17321;46.312;4.776;2022-07-23T08:17:37;8.10;;;7.28;;
30539;SDS011;17321;46.312;4.776;2022-07-23T08:20:04;13.05;;;6.80;;
30539;SDS011;17321;46.312;4.776;2022-07-23T08:22:46;10.68;;;7.22;;
30539;SDS011;17321;46.312;4.776;2022-07-23T08:25:13;11.60;;;7.63;;
30539;SDS011;17321;46.312;4.776;2022-07-23T08:27:39;11.13;;;7.38;;
30539;SDS011;17321;46.312;4.776;2022-07-23T08:30:05;12.85;;;7.15;;
30539;SDS011;17321;46.312;4.776;2022-07-23T08:32:32;11.90;;;7.13;;
30539;SDS011;17321;46.312;4.776;2022-07-23T08:34:58;9.65;;;6.47;;
30539;SDS011;17321;46.312;4.776;2022-07-23T08:37:24;10.55;;;6.72;;
30539;SDS011;17321;46.312;4.776;2022-07-23T08:39:50;11.27;;;6.90;;
30539;SDS011;17321;46.312;4.776;2022-07-23T08:42:16;8.57;;;6.47;;
30539;SDS011;17321;46.312;4.776;2022-07-23T08:44:44;9.55;;;6.53;;
30539;SDS011;17321;46.312;4.776;2022-07-23T08:47:11;12.30;;;7.47;;
30539;SDS011;17321;46.312;4.776;2022-07-23T08:49:38;11.52;;;6.95;;
30539;SDS011;17321;46.312;4.776;2022-07-23T08:52:04;12.35;;;7.30;;
30539;SDS011;17321;46.312;4.776;2022-07-23T08:54:31;8.65;;;7.32;;
30539;SDS011;17321;46.312;4.776;2022-07-23T08:56:57;9.40;;;6.72;;
30539;SDS011;17321;46.312;4.776;2022-07-23T08:59:23;10.65;;;6.72;;
30539;SDS011;17321;46.312;4.776;2022-07-23T09:01:51;12.00;;;7.53;;
30539;SDS011;17321;46.312;4.776;2022-07-23T09:04:18;18.95;;;6.55;;
30539;SDS011;17321;46.312;4.776;2022-07-23T09:06:44;8.32;;;6.45;;
30539;SDS011;17321;46.312;4.776;2022-07-23T09:09:20;13.10;;;6.15;;
30539;SDS011;17321;46.312;4.776;2022-07-23T09:11:47;12.45;;;6.93;;
30539;SDS011;17321;46.312;4.776;2022-07-23T09:14:13;10.10;;;6.28;;
30539;SDS011;17321;46.312;4.776;2022-07-23T09:16:39;10.20;;;6.35;;
30539;SDS011;17321;46.312;4.776;2022-07-23T09:19:06;11.15;;;6.10;;
30539;SDS011;17321;46.312;4.776;2022-07-23T09:21:33;6.53;;;5.78;;
30539;SDS011;17321;46.312;4.776;2022-07-23T09:24:03;12.43;;;6.05;;
30539;SDS011;17321;46.312;4.776;2022-07-23T09:26:42;7.53;;;5.68;;
30539;SDS011;17321;46.312;4.776;2022-07-23T09:36:43;7.53;;;4.80;;
30539;SDS011;17321;46.312;4.776;2022-07-23T09:39:10;7.65;;;4.75;;
30539;SDS011;17321;46.312;4.776;2022-07-23T09:41:41;8.73;;;4.95;;
30539;SDS011;17321;46.312;4.776;2022-07-23T09:44:09;11.40;;;4.55;;
30539;SDS011;17321;46.312;4.776;2022-07-23T09:46:36;6.93;;;4.30;;
30539;SDS011;17321;46.312;4.776;2022-07-23T09:49:13;9.23;;;4.72;;
30539;SDS011;17321;46.312;4.776;2022-07-23T09:51:51;8.73;;;4.90;;
30539;SDS011;17321;46.312;4.776;2022-07-23T09:54:31;6.10;;;4.95;;
30539;SDS011;17321;46.312;4.776;2022-07-23T09:57:00;7.20;;;4.80;;
30539;SDS011;17321;46.312;4.776;2022-07-23T10:01:54;7.03;;;4.60;;
30539;SDS011;17321;46.312;4.776;2022-07-23T10:04:22;4.65;;;4.13;;
30539;SDS011;17321;46.312;4.776;2022-07-23T10:06:50;6.00;;;4.50;;
30539;SDS011;17321;46.312;4.776;2022-07-23T10:09:17;7.72;;;4.82;;
30539;SDS011;17321;46.312;4.776;2022-07-23T10:11:47;5.80;;;4.38;;
30539;SDS011;17321;46.312;4.776;2022-07-23T10:14:14;6.82;;;4.57;;
30539;SDS011;17321;46.312;4.776;2022-07-23T10:16:40;6.85;;;4.75;;
30539;SDS011;17321;46.312;4.776;2022-07-23T10:19:06;6.03;;;4.40;;
30539;SDS011;17321;46.312;4.776;2022-07-23T10:21:48;4.75;;;4.35;;
30539;SDS011;17321;46.312;4.776;2022-07-23T10:29:50;7.97;;;4.53;;
30539;SDS011;17321;46.312;4.776;2022-07-23T10:32:20;4.53;;;4.07;;
30539;SDS011;17321;46.312;4.776;2022-07-23T10:39:46;9.23;;;4.93;;
30539;SDS011;17321;46.312;4.776;2022-07-23T10:44:42;5.28;;;4.57;;
30539;SDS011;17321;46.312;4.776;2022-07-23T10:47:09;6.28;;;4.70;;
30539;SDS011;17321;46.312;4.776;2022-07-23T10:49:38;6.13;;;4.43;;
30539;SDS011;17321;46.312;4.776;2022-07-23T10:54:44;6.65;;;3.85;;
30539;SDS011;17321;46.312;4.776;2022-07-23T10:57:11;10.13;;;4.05;;
30539;SDS011;17321;46.312;4.776;2022-07-23T11:02:42;9.88;;;4.32;;
30539;SDS011;17321;46.312;4.776;2022-07-23T11:05:12;10.15;;;4.32;;
30539;SDS011;17321;46.312;4.776;2022-07-23T11:10:32;7.90;;;4.40;;
30539;SDS011;17321;46.312;4.776;2022-07-23T11:31:28;7.18;;;4.45;;
30539;SDS011;17321;46.312;4.776;2022-07-23T11:36:49;7.97;;;4.18;;
30539;SDS011;17321;46.312;4.776;2022-07-23T11:39:15;10.52;;;5.00;;
30539;SDS011;17321;46.312;4.776;2022-07-23T11:41:45;5.03;;;4.47;;
30539;SDS011;17321;46.312;4.776;2022-07-23T11:46:57;6.00;;;4.10;;
30539;SDS011;17321;46.312;4.776;2022-07-23T11:49:23;4.57;;;4.18;;
30539;SDS011;17321;46.312;4.776;2022-07-23T11:52:06;9.30;;;4.35;;
30539;SDS011;17321;46.312;4.776;2022-07-23T11:54:33;9.02;;;4.40;;
30539;SDS011;17321;46.312;4.776;2022-07-23T11:57:00;4.97;;;3.90;;
30539;SDS011;17321;46.312;4.776;2022-07-23T11:59:26;9.05;;;4.63;;
30539;SDS011;17321;46.312;4.776;2022-07-23T12:01:58;4.82;;;3.88;;
30539;SDS011;17321;46.312;4.776;2022-07-23T12:07:24;8.57;;;4.00;;
30539;SDS011;17321;46.312;4.776;2022-07-23T12:09:50;8.15;;;4.40;;
30539;SDS011;17321;46.312;4.776;2022-07-23T12:12:17;6.22;;;4.47;;
30539;SDS011;17321;46.312;4.776;2022-07-23T12:14:50;8.45;;;4.85;;
30539;SDS011;17321;46.312;4.776;2022-07-23T12:17:16;9.10;;;4.80;;
30539;SDS011;17321;46.312;4.776;2022-07-23T12:19:42;9.55;;;4.68;;
30539;SDS011;17321;46.312;4.776;2022-07-23T12:22:09;6.00;;;4.45;;
30539;SDS011;17321;46.312;4.776;2022-07-23T12:27:20;5.85;;;4.45;;
30539;SDS011;17321;46.312;4.776;2022-07-23T12:29:47;7.60;;;4.53;;
30539;SDS011;17321;46.312;4.776;2022-07-23T12:32:17;6.10;;;3.97;;
30539;SDS011;17321;46.312;4.776;2022-07-23T12:34:43;7.57;;;4.88;;
30539;SDS011;17321;46.312;4.776;2022-07-23T12:37:28;5.82;;;4.43;;
30539;SDS011;17321;46.312;4.776;2022-07-23T12:39:55;6.18;;;4.40;;
30539;SDS011;17321;46.312;4.776;2022-07-23T12:42:21;6.68;;;4.55;;
30539;SDS011;17321;46.312;4.776;2022-07-23T12:50:35;8.48;;;4.90;;
30539;SDS011;17321;46.312;4.776;2022-07-23T12:55:33;9.27;;;4.28;;
30539;SDS011;17321;46.312;4.776;2022-07-23T12:58:06;5.35;;;4.75;;
30539;SDS011;17321;46.312;4.776;2022-07-23T13:00:48;6.70;;;4.65;;
30539;SDS011;17321;46.312;4.776;2022-07-23T13:03:26;6.25;;;4.78;;
30539;SDS011;17321;46.312;4.776;2022-07-23T13:05:53;5.63;;;4.55;;
30539;SDS011;17321;46.312;4.776;2022-07-23T13:08:19;4.90;;;4.38;;
30539;SDS011;17321;46.312;4.776;2022-07-23T13:10:45;5.15;;;3.92;;
30539;SDS011;17321;46.312;4.776;2022-07-23T13:13:13;10.00;;;4.55;;
30539;SDS011;17321;46.312;4.776;2022-07-23T13:15:40;5.07;;;4.47;;
30539;SDS011;17321;46.312;4.776;2022-07-23T13:18:06;4.95;;;4.15;;
30539;SDS011;17321;46.312;4.776;2022-07-23T13:20:32;11.90;;;4.53;;
30539;SDS011;17321;46.312;4.776;2022-07-23T13:22:59;5.80;;;4.70;;
30539;SDS011;17321;46.312;4.776;2022-07-23T13:25:26;7.47;;;4.63;;
30539;SDS011;17321;46.312;4.776;2022-07-23T13:27:52;5.90;;;4.40;;
30539;SDS011;17321;46.312;4.776;2022-07-23T13:30:18;5.70;;;4.60;;
30539;SDS011;17321;46.312;4.776;2022-07-23T13:32:44;4.93;;;4.10;;
30539;SDS011;17321;46.312;4.776;2022-07-23T13:35:10;5.13;;;4.22;;
30539;SDS011;17321;46.312;4.776;2022-07-23T13:37:37;7.25;;;4.82;;
30539;SDS011;17321;46.312;4.776;2022-07-23T13:40:03;7.50;;;4.20;;
30539;SDS011;17321;46.312;4.776;2022-07-23T13:42:29;6.40;;;4.38;;
30539;SDS011;17321;46.312;4.776;2022-07-23T13:44:55;5.28;;;4.50;;
30539;SDS011;17321;46.312;4.776;2022-07-23T13:47:22;8.02;;;4.70;;
30539;SDS011;17321;46.312;4.776;2022-07-23T13:49:48;9.70;;;4.75;;
30539;SDS011;17321;46.312;4.776;2022-07-23T13:52:14;5.32;;;4.65;;
30539;SDS011;17321;46.312;4.776;2022-07-23T13:54:40;5.15;;;4.05;;
30539;SDS011;17321;46.312;4.776;2022-07-23T13:57:06;5.05;;;4.55;;
30539;SDS011;17321;46.312;4.776;2022-07-23T13:59:34;4.85;;;4.40;;
30539;SDS011;17321;46.312;4.776;2022-07-23T14:02:04;4.95;;;4.20;;
30539;SDS011;17321;46.312;4.776;2022-07-23T14:04:30;6.88;;;4.78;;
30539;SDS011;17321;46.312;4.776;2022-07-23T14:06:57;6.43;;;3.78;;
30539;SDS011;17321;46.312;4.776;2022-07-23T14:09:24;8.27;;;4.30;;
30539;SDS011;17321;46.312;4.776;2022-07-23T14:11:50;6.82;;;3.97;;
30539;SDS011;17321;46.312;4.776;2022-07-23T14:14:17;6.78;;;4.07;;
30539;SDS011;17321;46.312;4.776;2022-07-23T14:16:43;10.20;;;4.18;;
30539;SDS011;17321;46.312;4.776;2022-07-23T14:19:09;6.40;;;4.20;;
30539;SDS011;17321;46.312;4.776;2022-07-23T14:21:37;5.50;;;4.35;;
30539;SDS011;17321;46.312;4.776;2022-07-23T14:24:03;7.05;;;4.15;;
30539;SDS011;17321;46.312;4.776;2022-07-23T14:26:29;5.85;;;4.40;;
30539;SDS011;17321;46.312;4.776;2022-07-23T14:28:55;4.75;;;4.32;;
30539;SDS011;17321;46.312;4.776;2022-07-23T14:31:21;6.35;;;3.92;;
30539;SDS011;17321;46.312;4.776;2022-07-23T14:33:48;9.65;;;4.03;;
30539;SDS011;17321;46.312;4.776;2022-07-23T14:36:14;4.63;;;4.00;;
30539;SDS011;17321;46.312;4.776;2022-07-23T14:38:40;9.25;;;4.47;;
30539;SDS011;17321;46.312;4.776;2022-07-23T14:41:07;4.60;;;3.58;;
30539;SDS011;17321;46.312;4.776;2022-07-23T14:43:34;5.13;;;3.67;;
30539;SDS011;17321;46.312;4.776;2022-07-23T14:46:00;4.90;;;4.03;;
30539;SDS011;17321;46.312;4.776;2022-07-23T14:48:26;11.30;;;4.50;;
30539;SDS011;17321;46.312;4.776;2022-07-23T14:50:52;4.40;;;3.70;;
30539;SDS011;17321;46.312;4.776;2022-07-23T14:53:18;4.50;;;3.70;;
30539;SDS011;17321;46.312;4.776;2022-07-23T14:55:44;6.53;;;4.35;;
30539;SDS011;17321;46.312;4.776;2022-07-23T14:58:10;3.97;;;3.67;;
30539;SDS011;17321;46.312;4.776;2022-07-23T15:00:36;8.93;;;4.18;;
30539;SDS011;17321;46.312;4.776;2022-07-23T15:03:03;4.35;;;3.75;;
30539;SDS011;17321;46.312;4.776;2022-07-23T15:05:29;4.10;;;3.65;;
30539;SDS011;17321;46.312;4.776;2022-07-23T15:07:55;6.15;;;4.35;;
30539;SDS011;17321;46.312;4.776;2022-07-23T15:10:22;5.25;;;3.65;;
30539;SDS011;17321;46.312;4.776;2022-07-23T15:12:48;7.43;;;4.05;;
30539;SDS011;17321;46.312;4.776;2022-07-23T15:15:15;3.80;;;3.50;;
30539;SDS011;17321;46.312;4.776;2022-07-23T15:17:42;4.25;;;3.55;;
30539;SDS011;17321;46.312;4.776;2022-07-23T15:20:08;6.50;;;3.47;;
30539;SDS011;17321;46.312;4.776;2022-07-23T15:22:35;4.22;;;3.63;;
30539;SDS011;17321;46.312;4.776;2022-07-23T15:25:01;4.55;;;3.63;;
30539;SDS011;17321;46.312;4.776;2022-07-23T15:27:27;5.75;;;4.05;;
30539;SDS011;17321;46.312;4.776;2022-07-23T15:29:53;4.88;;;3.92;;
30539;SDS011;17321;46.312;4.776;2022-07-23T15:32:19;4.70;;;3.83;;
30539;SDS011;17321;46.312;4.776;2022-07-23T15:34:45;7.30;;;3.90;;
30539;SDS011;17321;46.312;4.776;2022-07-23T15:37:11;6.10;;;3.90;;
30539;SDS011;17321;46.312;4.776;2022-07-23T15:39:38;4.50;;;3.60;;
30539;SDS011;17321;46.312;4.776;2022-07-23T15:42:04;4.70;;;3.35;;
30539;SDS011;17321;46.312;4.776;2022-07-23T15:44:30;4.00;;;3.35;;
30539;SDS011;17321;46.312;4.776;2022-07-23T15:46:56;7.22;;;3.65;;
30539;SDS011;17321;46.312;4.776;2022-07-23T15:49:23;6.18;;;3.20;;